sensor_id;sensor_type;location;lat;lon;timestamp;temperature;humidity
67182;DHT22;54114;53.524;49.396;2022-11-03T00:01:37;4.60;79.50
67182;DHT22;54114;53.524;49.396;2022-11-03T00:04:05;4.60;79.70
67182;DHT22;54114;53.524;49.396;2022-11-03T00:06:33;4.60;79.80
67182;DHT22;54114;53.524;49.396;2022-11-03T00:09:00;4.60;79.90
67182;DHT22;54114;53.524;49.396;2022-11-03T00:11:27;4.60;79.80
67182;DHT22;54114;53.524;49.396;2022-11-03T00:13:53;4.60;79.90
67182;DHT22;54114;53.524;49.396;2022-11-03T00:16:21;4.60;79.50
67182;DHT22;54114;53.524;49.396;2022-11-03T00:18:47;4.70;79.50
67182;DHT22;54114;53.524;49.396;2022-11-03T00:21:14;4.60;79.50
67182;DHT22;54114;53.524;49.396;2022-11-03T00:23:41;4.60;79.70
67182;DHT22;54114;53.524;49.396;2022-11-03T00:28:34;4.60;79.80
67182;DHT22;54114;53.524;49.396;2022-11-03T00:31:04;4.70;80.00
67182;DHT22;54114;53.524;49.396;2022-11-03T00:33:33;4.60;79.80
67182;DHT22;54114;53.524;49.396;2022-11-03T00:36:01;4.60;79.80
67182;DHT22;54114;53.524;49.396;2022-11-03T00:38:28;4.60;79.80
67182;DHT22;54114;53.524;49.396;2022-11-03T00:40:55;4.60;79.80
67182;DHT22;54114;53.524;49.396;2022-11-03T00:43:22;4.60;79.70
67182;DHT22;54114;53.524;49.396;2022-11-03T00:45:50;4.60;79.60
67182;DHT22;54114;53.524;49.396;2022-11-03T00:48:17;4.60;79.50
67182;DHT22;54114;53.524;49.396;2022-11-03T00:51:32;4.60;79.50
67182;DHT22;54114;53.524;49.396;2022-11-03T00:53:53;4.50;79.40
67182;DHT22;54114;53.524;49.396;2022-11-03T00:56:21;4.50;79.40
67182;DHT22;54114;53.524;49.396;2022-11-03T00:58:49;4.50;79.50
67182;DHT22;54114;53.524;49.396;2022-11-03T01:03:44;4.40;79.40
67182;DHT22;54114;53.524;49.396;2022-11-03T01:06:35;4.40;79.40
67182;DHT22;54114;53.524;49.396;2022-11-03T01:12:16;4.40;79.60
67182;DHT22;54114;53.524;49.396;2022-11-03T01:14:45;4.40;79.70
67182;DHT22;54114;53.524;49.396;2022-11-03T01:17:16;4.30;79.90
67182;DHT22;54114;53.524;49.396;2022-11-03T01:19:44;4.30;79.90
67182;DHT22;54114;53.524;49.396;2022-11-03T01:22:11;4.40;80.00
67182;DHT22;54114;53.524;49.396;2022-11-03T01:24:40;4.40;80.10
67182;DHT22;54114;53.524;49.396;2022-11-03T01:27:08;4.40;80.10
67182;DHT22;54114;53.524;49.396;2022-11-03T01:29:35;4.40;80.00
67182;DHT22;54114;53.524;49.396;2022-11-03T01:32:02;4.50;80.00
67182;DHT22;54114;53.524;49.396;2022-11-03T01:34:28;4.50;79.80
67182;DHT22;54114;53.524;49.396;2022-11-03T01:36:55;4.50;79.80
67182;DHT22;54114;53.524;49.396;2022-11-03T01:39:21;4.60;79.90
67182;DHT22;54114;53.524;49.396;2022-11-03T01:41:48;4.60;79.90
67182;DHT22;54114;53.524;49.396;2022-11-03T01:49:24;4.70;79.30
67182;DHT22;54114;53.524;49.396;2022-11-03T01:52:02;4.70;80.10
67182;DHT22;54114;53.524;49.396;2022-11-03T01:54:40;4.70;79.50
67182;DHT22;54114;53.524;49.396;2022-11-03T01:57:10;4.70;79.40
67182;DHT22;54114;53.524;49.396;2022-11-03T01:59:38;4.70;79.10
67182;DHT22;54114;53.524;49.396;2022-11-03T02:02:05;4.80;79.20
67182;DHT22;54114;53.524;49.396;2022-11-03T02:04:32;4.80;79.10
67182;DHT22;54114;53.524;49.396;2022-11-03T02:09:47;4.80;79.00
67182;DHT22;54114;53.524;49.396;2022-11-03T02:12:14;4.70;79.00
67182;DHT22;54114;53.524;49.396;2022-11-03T02:14:42;4.70;79.00
67182;DHT22;54114;53.524;49.396;2022-11-03T02:17:20;4.70;79.20
67182;DHT22;54114;53.524;49.396;2022-11-03T02:19:50;4.70;79.30
67182;DHT22;54114;53.524;49.396;2022-11-03T02:22:25;4.70;79.40
67182;DHT22;54114;53.524;49.396;2022-11-03T02:25:17;4.70;79.40
67182;DHT22;54114;53.524;49.396;2022-11-03T02:28:01;4.80;79.40
67182;DHT22;54114;53.524;49.396;2022-11-03T02:30:30;4.80;79.20
67182;DHT22;54114;53.524;49.396;2022-11-03T02:33:42;4.80;79.20
67182;DHT22;54114;53.524;49.396;2022-11-03T02:39:00;4.80;79.10
67182;DHT22;54114;53.524;49.396;2022-11-03T02:41:29;4.80;79.00
67182;DHT22;54114;53.524;49.396;2022-11-03T02:43:59;4.80;78.80
67182;DHT22;54114;53.524;49.396;2022-11-03T02:46:26;4.80;78.80
67182;DHT22;54114;53.524;49.396;2022-11-03T02:48:53;4.80;78.70
67182;DHT22;54114;53.524;49.396;2022-11-03T02:51:22;4.90;78.90
67182;DHT22;54114;53.524;49.396;2022-11-03T02:54:07;4.90;79.00
67182;DHT22;54114;53.524;49.396;2022-11-03T02:56:41;4.90;78.90
67182;DHT22;54114;53.524;49.396;2022-11-03T02:59:16;5.00;79.00
67182;DHT22;54114;53.524;49.396;2022-11-03T03:01:47;5.00;78.70
67182;DHT22;54114;53.524;49.396;2022-11-03T03:04:20;5.00;78.60
67182;DHT22;54114;53.524;49.396;2022-11-03T03:06:55;5.00;78.50
67182;DHT22;54114;53.524;49.396;2022-11-03T03:09:28;5.00;78.50
67182;DHT22;54114;53.524;49.396;2022-11-03T03:12:02;5.10;78.50
67182;DHT22;54114;53.524;49.396;2022-11-03T03:14:31;5.10;78.50
67182;DHT22;54114;53.524;49.396;2022-11-03T03:17:12;5.10;78.50
67182;DHT22;54114;53.524;49.396;2022-11-03T03:19:48;5.10;78.70
67182;DHT22;54114;53.524;49.396;2022-11-03T03:25:07;5.20;78.80
67182;DHT22;54114;53.524;49.396;2022-11-03T03:27:40;5.20;78.50
67182;DHT22;54114;53.524;49.396;2022-11-03T03:30:09;5.20;78.30
67182;DHT22;54114;53.524;49.396;2022-11-03T03:32:37;5.20;78.20
67182;DHT22;54114;53.524;49.396;2022-11-03T03:35:06;5.20;78.30
67182;DHT22;54114;53.524;49.396;2022-11-03T03:37:34;5.20;78.30
67182;DHT22;54114;53.524;49.396;2022-11-03T03:40:03;5.20;78.40
67182;DHT22;54114;53.524;49.396;2022-11-03T03:42:33;5.20;78.40
67182;DHT22;54114;53.524;49.396;2022-11-03T03:45:01;5.30;78.40
67182;DHT22;54114;53.524;49.396;2022-11-03T03:47:30;5.30;78.40
67182;DHT22;54114;53.524;49.396;2022-11-03T03:49:57;5.30;78.40
67182;DHT22;54114;53.524;49.396;2022-11-03T03:52:23;5.30;78.40
67182;DHT22;54114;53.524;49.396;2022-11-03T03:54:50;5.30;78.30
67182;DHT22;54114;53.524;49.396;2022-11-03T03:57:17;5.40;78.30
67182;DHT22;54114;53.524;49.396;2022-11-03T03:59:45;5.30;78.10
67182;DHT22;54114;53.524;49.396;2022-11-03T04:02:12;5.40;78.30
67182;DHT22;54114;53.524;49.396;2022-11-03T04:04:38;5.40;78.30
67182;DHT22;54114;53.524;49.396;2022-11-03T04:07:05;5.40;78.00
67182;DHT22;54114;53.524;49.396;2022-11-03T04:09:50;5.40;77.80
67182;DHT22;54114;53.524;49.396;2022-11-03T04:12:17;5.40;77.80
67182;DHT22;54114;53.524;49.396;2022-11-03T04:15:02;5.40;77.70
67182;DHT22;54114;53.524;49.396;2022-11-03T04:17:47;5.40;77.80
67182;DHT22;54114;53.524;49.396;2022-11-03T04:20:33;5.40;77.90
67182;DHT22;54114;53.524;49.396;2022-11-03T04:23:18;5.40;77.90
67182;DHT22;54114;53.524;49.396;2022-11-03T04:25:49;5.40;77.80
67182;DHT22;54114;53.524;49.396;2022-11-03T04:28:17;5.50;77.80
67182;DHT22;54114;53.524;49.396;2022-11-03T04:30:44;5.50;77.60
67182;DHT22;54114;53.524;49.396;2022-11-03T04:33:14;5.50;77.40
67182;DHT22;54114;53.524;49.396;2022-11-03T04:35:42;5.50;77.90
67182;DHT22;54114;53.524;49.396;2022-11-03T04:40:44;5.50;77.30
67182;DHT22;54114;53.524;49.396;2022-11-03T04:43:12;5.50;77.30
67182;DHT22;54114;53.524;49.396;2022-11-03T04:45:39;5.50;77.50
67182;DHT22;54114;53.524;49.396;2022-11-03T04:48:15;5.50;77.50
67182;DHT22;54114;53.524;49.396;2022-11-03T04:50:44;5.50;77.40
67182;DHT22;54114;53.524;49.396;2022-11-03T04:53:15;5.50;77.40
67182;DHT22;54114;53.524;49.396;2022-11-03T04:55:43;5.50;77.30
67182;DHT22;54114;53.524;49.396;2022-11-03T04:58:18;5.50;77.40
67182;DHT22;54114;53.524;49.396;2022-11-03T05:00:51;5.50;77.30
67182;DHT22;54114;53.524;49.396;2022-11-03T05:03:20;5.50;77.30
67182;DHT22;54114;53.524;49.396;2022-11-03T05:05:48;5.50;77.40
67182;DHT22;54114;53.524;49.396;2022-11-03T05:08:15;5.50;77.50
67182;DHT22;54114;53.524;49.396;2022-11-03T05:10:42;5.50;77.50
67182;DHT22;54114;53.524;49.396;2022-11-03T05:16:05;5.50;77.40
67182;DHT22;54114;53.524;49.396;2022-11-03T05:18:33;5.50;77.60
67182;DHT22;54114;53.524;49.396;2022-11-03T05:21:05;5.50;77.60
67182;DHT22;54114;53.524;49.396;2022-11-03T05:23:39;5.50;77.40
67182;DHT22;54114;53.524;49.396;2022-11-03T05:26:30;5.50;77.20
67182;DHT22;54114;53.524;49.396;2022-11-03T05:28:57;5.50;77.00
67182;DHT22;54114;53.524;49.396;2022-11-03T05:31:27;5.50;77.00
67182;DHT22;54114;53.524;49.396;2022-11-03T05:33:56;5.50;77.20
67182;DHT22;54114;53.524;49.396;2022-11-03T05:36:24;5.50;77.20
67182;DHT22;54114;53.524;49.396;2022-11-03T05:38:53;5.60;77.30
67182;DHT22;54114;53.524;49.396;2022-11-03T05:41:22;5.50;77.20
67182;DHT22;54114;53.524;49.396;2022-11-03T05:43:54;5.50;77.30
67182;DHT22;54114;53.524;49.396;2022-11-03T05:46:41;5.50;77.30
67182;DHT22;54114;53.524;49.396;2022-11-03T05:49:08;5.50;77.40
67182;DHT22;54114;53.524;49.396;2022-11-03T05:51:38;5.60;77.50
67182;DHT22;54114;53.524;49.396;2022-11-03T05:54:09;5.60;77.40
67182;DHT22;54114;53.524;49.396;2022-11-03T05:56:45;5.60;77.30
67182;DHT22;54114;53.524;49.396;2022-11-03T05:59:12;5.60;77.30
67182;DHT22;54114;53.524;49.396;2022-11-03T06:01:39;5.60;77.30
67182;DHT22;54114;53.524;49.396;2022-11-03T06:06:51;5.70;77.10
67182;DHT22;54114;53.524;49.396;2022-11-03T06:09:20;5.70;77.30
67182;DHT22;54114;53.524;49.396;2022-11-03T06:11:49;5.70;77.30
67182;DHT22;54114;53.524;49.396;2022-11-03T06:14:18;5.70;77.40
67182;DHT22;54114;53.524;49.396;2022-11-03T06:16:46;5.80;77.50
67182;DHT22;54114;53.524;49.396;2022-11-03T06:19:20;5.80;77.30
67182;DHT22;54114;53.524;49.396;2022-11-03T06:21:48;5.80;77.40
67182;DHT22;54114;53.524;49.396;2022-11-03T06:24:16;5.90;77.50
67182;DHT22;54114;53.524;49.396;2022-11-03T06:26:43;5.80;77.40
67182;DHT22;54114;53.524;49.396;2022-11-03T06:29:15;5.90;77.40
67182;DHT22;54114;53.524;49.396;2022-11-03T06:31:47;5.90;77.20
67182;DHT22;54114;53.524;49.396;2022-11-03T06:36:50;6.00;77.00
67182;DHT22;54114;53.524;49.396;2022-11-03T06:39:21;6.00;76.80
67182;DHT22;54114;53.524;49.396;2022-11-03T06:41:48;6.00;76.90
67182;DHT22;54114;53.524;49.396;2022-11-03T06:44:18;6.10;76.70
67182;DHT22;54114;53.524;49.396;2022-11-03T06:46:45;6.10;76.80
67182;DHT22;54114;53.524;49.396;2022-11-03T06:49:20;6.10;76.80
67182;DHT22;54114;53.524;49.396;2022-11-03T06:51:52;6.10;76.50
67182;DHT22;54114;53.524;49.396;2022-11-03T06:54:18;6.10;76.60
67182;DHT22;54114;53.524;49.396;2022-11-03T06:56:45;6.10;76.90
67182;DHT22;54114;53.524;49.396;2022-11-03T06:59:13;6.10;76.90
67182;DHT22;54114;53.524;49.396;2022-11-03T07:01:39;6.20;77.00
67182;DHT22;54114;53.524;49.396;2022-11-03T07:04:13;6.20;76.80
67182;DHT22;54114;53.524;49.396;2022-11-03T07:06:43;6.20;76.60
67182;DHT22;54114;53.524;49.396;2022-11-03T07:09:12;6.20;76.60
67182;DHT22;54114;53.524;49.396;2022-11-03T07:14:18;6.30;76.70
67182;DHT22;54114;53.524;49.396;2022-11-03T07:16:47;6.30;76.90
67182;DHT22;54114;53.524;49.396;2022-11-03T07:24:32;6.30;77.20
67182;DHT22;54114;53.524;49.396;2022-11-03T07:27:04;6.40;77.30
67182;DHT22;54114;53.524;49.396;2022-11-03T07:29:38;6.40;77.50
67182;DHT22;54114;53.524;49.396;2022-11-03T07:32:11;6.40;77.60
67182;DHT22;54114;53.524;49.396;2022-11-03T07:34:51;6.40;77.80
67182;DHT22;54114;53.524;49.396;2022-11-03T07:37:19;6.50;77.60
67182;DHT22;54114;53.524;49.396;2022-11-03T07:39:46;6.50;77.70
67182;DHT22;54114;53.524;49.396;2022-11-03T07:42:20;6.50;77.70
67182;DHT22;54114;53.524;49.396;2022-11-03T07:44:47;6.50;77.30
67182;DHT22;54114;53.524;49.396;2022-11-03T07:47:18;6.50;77.60
67182;DHT22;54114;53.524;49.396;2022-11-03T07:49:45;6.50;77.90
67182;DHT22;54114;53.524;49.396;2022-11-03T07:52:13;6.50;77.90
67182;DHT22;54114;53.524;49.396;2022-11-03T07:54:41;6.50;78.10
67182;DHT22;54114;53.524;49.396;2022-11-03T07:57:14;6.50;77.90
67182;DHT22;54114;53.524;49.396;2022-11-03T07:59:52;6.50;77.90
67182;DHT22;54114;53.524;49.396;2022-11-03T08:02:31;6.50;78.00
67182;DHT22;54114;53.524;49.396;2022-11-03T08:04:58;6.50;78.20
67182;DHT22;54114;53.524;49.396;2022-11-03T08:07:25;6.50;78.40
67182;DHT22;54114;53.524;49.396;2022-11-03T08:09:54;6.60;78.80
67182;DHT22;54114;53.524;49.396;2022-11-03T08:12:21;6.60;78.60
67182;DHT22;54114;53.524;49.396;2022-11-03T08:14:47;6.70;78.60
67182;DHT22;54114;53.524;49.396;2022-11-03T08:17:14;6.70;78.60
67182;DHT22;54114;53.524;49.396;2022-11-03T08:19:41;6.70;78.60
67182;DHT22;54114;53.524;49.396;2022-11-03T08:22:08;6.70;78.30
67182;DHT22;54114;53.524;49.396;2022-11-03T08:24:34;6.80;78.40
67182;DHT22;54114;53.524;49.396;2022-11-03T08:27:00;6.80;78.40
67182;DHT22;54114;53.524;49.396;2022-11-03T08:29:28;6.80;78.30
67182;DHT22;54114;53.524;49.396;2022-11-03T08:31:54;6.80;78.20
67182;DHT22;54114;53.524;49.396;2022-11-03T08:34:21;6.90;78.20
67182;DHT22;54114;53.524;49.396;2022-11-03T08:36:47;6.90;78.00
67182;DHT22;54114;53.524;49.396;2022-11-03T08:39:14;6.90;77.80
67182;DHT22;54114;53.524;49.396;2022-11-03T08:41:40;7.00;77.60
67182;DHT22;54114;53.524;49.396;2022-11-03T08:44:07;7.10;77.20
67182;DHT22;54114;53.524;49.396;2022-11-03T08:46:33;7.10;76.80
67182;DHT22;54114;53.524;49.396;2022-11-03T08:49:00;7.10;77.10
67182;DHT22;54114;53.524;49.396;2022-11-03T08:51:26;7.20;76.70
67182;DHT22;54114;53.524;49.396;2022-11-03T08:53:52;7.30;76.80
67182;DHT22;54114;53.524;49.396;2022-11-03T08:56:19;7.30;76.20
67182;DHT22;54114;53.524;49.396;2022-11-03T08:58:46;7.50;76.60
67182;DHT22;54114;53.524;49.396;2022-11-03T09:01:12;7.60;76.20
67182;DHT22;54114;53.524;49.396;2022-11-03T09:03:39;7.80;76.20
67182;DHT22;54114;53.524;49.396;2022-11-03T09:06:06;8.10;75.50
67182;DHT22;54114;53.524;49.396;2022-11-03T09:08:33;8.20;74.70
67182;DHT22;54114;53.524;49.396;2022-11-03T09:10:59;8.30;74.30
67182;DHT22;54114;53.524;49.396;2022-11-03T09:13:26;8.40;74.10
67182;DHT22;54114;53.524;49.396;2022-11-03T09:15:53;8.50;73.60
67182;DHT22;54114;53.524;49.396;2022-11-03T09:18:19;8.50;73.00
67182;DHT22;54114;53.524;49.396;2022-11-03T09:20:47;8.70;72.80
67182;DHT22;54114;53.524;49.396;2022-11-03T09:23:13;8.90;72.90
67182;DHT22;54114;53.524;49.396;2022-11-03T09:25:40;9.30;72.80
67182;DHT22;54114;53.524;49.396;2022-11-03T09:28:06;9.90;72.20
67182;DHT22;54114;53.524;49.396;2022-11-03T09:30:32;10.50;70.90
67182;DHT22;54114;53.524;49.396;2022-11-03T09:32:59;11.00;68.90
67182;DHT22;54114;53.524;49.396;2022-11-03T09:35:25;11.50;67.90
67182;DHT22;54114;53.524;49.396;2022-11-03T09:37:52;12.10;66.40
67182;DHT22;54114;53.524;49.396;2022-11-03T09:40:18;12.30;64.50
67182;DHT22;54114;53.524;49.396;2022-11-03T09:42:47;12.40;63.90
67182;DHT22;54114;53.524;49.396;2022-11-03T09:45:14;12.30;63.00
67182;DHT22;54114;53.524;49.396;2022-11-03T09:47:40;12.30;62.70
67182;DHT22;54114;53.524;49.396;2022-11-03T09:50:15;12.50;62.80
67182;DHT22;54114;53.524;49.396;2022-11-03T09:52:44;12.70;62.00
67182;DHT22;54114;53.524;49.396;2022-11-03T09:55:12;13.10;60.90
67182;DHT22;54114;53.524;49.396;2022-11-03T09:57:40;13.20;60.50
67182;DHT22;54114;53.524;49.396;2022-11-03T10:00:12;13.40;59.50
67182;DHT22;54114;53.524;49.396;2022-11-03T10:02:44;13.40;58.80
67182;DHT22;54114;53.524;49.396;2022-11-03T10:05:15;13.70;58.90
67182;DHT22;54114;53.524;49.396;2022-11-03T10:07:45;13.90;58.10
67182;DHT22;54114;53.524;49.396;2022-11-03T10:10:16;13.80;57.50
67182;DHT22;54114;53.524;49.396;2022-11-03T10:12:44;13.70;57.10
67182;DHT22;54114;53.524;49.396;2022-11-03T10:15:15;13.50;56.40
67182;DHT22;54114;53.524;49.396;2022-11-03T10:17:42;13.40;56.10
67182;DHT22;54114;53.524;49.396;2022-11-03T10:20:11;13.40;56.40
67182;DHT22;54114;53.524;49.396;2022-11-03T10:22:39;13.50;56.60
67182;DHT22;54114;53.524;49.396;2022-11-03T10:27:57;13.60;55.00
67182;DHT22;54114;53.524;49.396;2022-11-03T10:30:46;13.70;55.20
67182;DHT22;54114;53.524;49.396;2022-11-03T10:33:31;13.70;54.40
67182;DHT22;54114;53.524;49.396;2022-11-03T10:36:01;13.70;54.50
67182;DHT22;54114;53.524;49.396;2022-11-03T10:41:14;13.30;54.70
67182;DHT22;54114;53.524;49.396;2022-11-03T10:44:45;13.10;54.70
67182;DHT22;54114;53.524;49.396;2022-11-03T10:46:40;12.80;54.50
67182;DHT22;54114;53.524;49.396;2022-11-03T10:49:21;12.60;55.20
67182;DHT22;54114;53.524;49.396;2022-11-03T10:51:51;12.40;54.80
67182;DHT22;54114;53.524;49.396;2022-11-03T10:54:19;12.30;55.40
67182;DHT22;54114;53.524;49.396;2022-11-03T10:56:47;12.30;55.50
67182;DHT22;54114;53.524;49.396;2022-11-03T11:01:45;12.00;55.20
67182;DHT22;54114;53.524;49.396;2022-11-03T11:04:15;11.80;55.20
67182;DHT22;54114;53.524;49.396;2022-11-03T11:06:42;11.70;55.30
67182;DHT22;54114;53.524;49.396;2022-11-03T11:09:09;11.60;55.60
67182;DHT22;54114;53.524;49.396;2022-11-03T11:11:37;11.40;55.50
67182;DHT22;54114;53.524;49.396;2022-11-03T11:16:48;11.10;55.50
67182;DHT22;54114;53.524;49.396;2022-11-03T11:19:17;10.90;55.70
67182;DHT22;54114;53.524;49.396;2022-11-03T11:24:12;10.80;56.50
67182;DHT22;54114;53.524;49.396;2022-11-03T11:26:39;10.70;56.40
67182;DHT22;54114;53.524;49.396;2022-11-03T11:31:35;10.50;56.60
67182;DHT22;54114;53.524;49.396;2022-11-03T11:36:35;10.30;57.10
67182;DHT22;54114;53.524;49.396;2022-11-03T11:39:03;10.30;56.90
67182;DHT22;54114;53.524;49.396;2022-11-03T11:52:44;10.00;57.30
67182;DHT22;54114;53.524;49.396;2022-11-03T11:55:16;10.10;57.50
67182;DHT22;54114;53.524;49.396;2022-11-03T11:57:54;9.90;57.30
67182;DHT22;54114;53.524;49.396;2022-11-03T12:00:23;9.80;57.60
67182;DHT22;54114;53.524;49.396;2022-11-03T12:02:53;9.70;58.10
67182;DHT22;54114;53.524;49.396;2022-11-03T12:07:52;9.50;58.60
67182;DHT22;54114;53.524;49.396;2022-11-03T12:12:57;9.40;58.90
67182;DHT22;54114;53.524;49.396;2022-11-03T12:21:09;9.30;59.40
67182;DHT22;54114;53.524;49.396;2022-11-03T12:23:42;9.20;59.50
67182;DHT22;54114;53.524;49.396;2022-11-03T12:26:16;9.20;59.70
67182;DHT22;54114;53.524;49.396;2022-11-03T12:28:44;9.20;59.70
67182;DHT22;54114;53.524;49.396;2022-11-03T12:31:10;9.10;60.00
67182;DHT22;54114;53.524;49.396;2022-11-03T12:33:37;9.00;59.90
67182;DHT22;54114;53.524;49.396;2022-11-03T12:36:03;8.90;60.00
67182;DHT22;54114;53.524;49.396;2022-11-03T12:38:30;8.70;60.00
67182;DHT22;54114;53.524;49.396;2022-11-03T12:40:56;8.60;60.40
67182;DHT22;54114;53.524;49.396;2022-11-03T12:43:42;8.50;60.70
67182;DHT22;54114;53.524;49.396;2022-11-03T12:46:09;8.40;60.90
67182;DHT22;54114;53.524;49.396;2022-11-03T12:48:36;8.30;61.10
67182;DHT22;54114;53.524;49.396;2022-11-03T12:51:02;8.20;61.40
67182;DHT22;54114;53.524;49.396;2022-11-03T12:53:29;8.20;61.90
67182;DHT22;54114;53.524;49.396;2022-11-03T12:55:55;8.20;62.20
67182;DHT22;54114;53.524;49.396;2022-11-03T12:58:21;8.30;62.30
67182;DHT22;54114;53.524;49.396;2022-11-03T13:00:48;8.20;62.20
67182;DHT22;54114;53.524;49.396;2022-11-03T13:03:14;8.20;62.40
67182;DHT22;54114;53.524;49.396;2022-11-03T13:05:40;8.20;62.50
67182;DHT22;54114;53.524;49.396;2022-11-03T13:08:07;8.10;62.60
67182;DHT22;54114;53.524;49.396;2022-11-03T13:10:33;8.10;62.70
67182;DHT22;54114;53.524;49.396;2022-11-03T13:13:00;8.10;62.90
67182;DHT22;54114;53.524;49.396;2022-11-03T13:15:26;8.00;63.10
67182;DHT22;54114;53.524;49.396;2022-11-03T13:17:52;8.00;63.10
67182;DHT22;54114;53.524;49.396;2022-11-03T13:20:22;7.90;63.30
67182;DHT22;54114;53.524;49.396;2022-11-03T13:22:49;7.80;63.50
67182;DHT22;54114;53.524;49.396;2022-11-03T13:25:15;7.80;63.70
67182;DHT22;54114;53.524;49.396;2022-11-03T13:27:43;7.80;63.90
67182;DHT22;54114;53.524;49.396;2022-11-03T13:30:10;7.80;63.90
67182;DHT22;54114;53.524;49.396;2022-11-03T13:32:36;7.80;64.20
67182;DHT22;54114;53.524;49.396;2022-11-03T13:35:03;7.70;64.10
67182;DHT22;54114;53.524;49.396;2022-11-03T13:37:30;7.60;64.30
67182;DHT22;54114;53.524;49.396;2022-11-03T13:39:56;7.60;64.50
67182;DHT22;54114;53.524;49.396;2022-11-03T13:42:22;7.50;64.70
67182;DHT22;54114;53.524;49.396;2022-11-03T13:44:49;7.40;64.70
67182;DHT22;54114;53.524;49.396;2022-11-03T13:47:15;7.30;64.80
67182;DHT22;54114;53.524;49.396;2022-11-03T13:49:42;7.30;65.20
67182;DHT22;54114;53.524;49.396;2022-11-03T13:52:08;7.30;65.30
67182;DHT22;54114;53.524;49.396;2022-11-03T13:54:35;7.30;65.40
67182;DHT22;54114;53.524;49.396;2022-11-03T13:57:01;7.30;65.40
67182;DHT22;54114;53.524;49.396;2022-11-03T13:59:28;7.30;65.40
67182;DHT22;54114;53.524;49.396;2022-11-03T14:01:54;7.20;65.50
67182;DHT22;54114;53.524;49.396;2022-11-03T14:04:21;7.10;65.80
67182;DHT22;54114;53.524;49.396;2022-11-03T14:06:47;7.00;66.00
67182;DHT22;54114;53.524;49.396;2022-11-03T14:09:13;6.90;66.10
67182;DHT22;54114;53.524;49.396;2022-11-03T14:11:40;6.90;66.40
67182;DHT22;54114;53.524;49.396;2022-11-03T14:14:25;6.90;66.60
67182;DHT22;54114;53.524;49.396;2022-11-03T14:16:51;6.90;66.60
67182;DHT22;54114;53.524;49.396;2022-11-03T14:19:17;6.90;66.60
67182;DHT22;54114;53.524;49.396;2022-11-03T14:21:44;6.80;66.70
67182;DHT22;54114;53.524;49.396;2022-11-03T14:24:10;6.80;66.90
67182;DHT22;54114;53.524;49.396;2022-11-03T14:26:37;6.80;67.10
67182;DHT22;54114;53.524;49.396;2022-11-03T14:29:03;6.80;67.30
67182;DHT22;54114;53.524;49.396;2022-11-03T14:31:30;6.90;67.30
67182;DHT22;54114;53.524;49.396;2022-11-03T14:33:56;6.90;67.40
67182;DHT22;54114;53.524;49.396;2022-11-03T14:36:23;6.90;67.30
67182;DHT22;54114;53.524;49.396;2022-11-03T14:38:49;6.90;67.40
67182;DHT22;54114;53.524;49.396;2022-11-03T14:41:16;6.90;67.50
67182;DHT22;54114;53.524;49.396;2022-11-03T14:44:01;6.90;67.30
67182;DHT22;54114;53.524;49.396;2022-11-03T14:46:31;6.90;67.40
67182;DHT22;54114;53.524;49.396;2022-11-03T14:48:58;6.80;67.50
67182;DHT22;54114;53.524;49.396;2022-11-03T14:51:26;6.80;67.60
67182;DHT22;54114;53.524;49.396;2022-11-03T14:53:53;6.70;67.80
67182;DHT22;54114;53.524;49.396;2022-11-03T14:56:21;6.70;68.00
67182;DHT22;54114;53.524;49.396;2022-11-03T14:58:48;6.70;68.20
67182;DHT22;54114;53.524;49.396;2022-11-03T15:01:17;6.70;68.30
67182;DHT22;54114;53.524;49.396;2022-11-03T15:03:44;6.70;68.30
67182;DHT22;54114;53.524;49.396;2022-11-03T15:06:11;6.70;68.50
67182;DHT22;54114;53.524;49.396;2022-11-03T15:08:38;6.70;68.60
67182;DHT22;54114;53.524;49.396;2022-11-03T15:11:05;6.70;68.50
67182;DHT22;54114;53.524;49.396;2022-11-03T15:13:38;6.70;68.60
67182;DHT22;54114;53.524;49.396;2022-11-03T15:16:04;6.70;68.70
67182;DHT22;54114;53.524;49.396;2022-11-03T15:18:31;6.70;68.80
67182;DHT22;54114;53.524;49.396;2022-11-03T15:20:58;6.70;68.80
67182;DHT22;54114;53.524;49.396;2022-11-03T15:23:25;6.70;68.90
67182;DHT22;54114;53.524;49.396;2022-11-03T15:25:53;6.70;68.90
67182;DHT22;54114;53.524;49.396;2022-11-03T15:28:20;6.80;68.90
67182;DHT22;54114;53.524;49.396;2022-11-03T15:30:46;6.80;69.00
67182;DHT22;54114;53.524;49.396;2022-11-03T15:33:13;6.80;68.90
67182;DHT22;54114;53.524;49.396;2022-11-03T15:35:40;6.80;68.60
67182;DHT22;54114;53.524;49.396;2022-11-03T15:38:07;6.80;68.80
67182;DHT22;54114;53.524;49.396;2022-11-03T15:40:33;6.70;68.90
67182;DHT22;54114;53.524;49.396;2022-11-03T15:42:59;6.70;68.90
67182;DHT22;54114;53.524;49.396;2022-11-03T15:45:26;6.70;69.00
67182;DHT22;54114;53.524;49.396;2022-11-03T15:47:52;6.80;69.00
67182;DHT22;54114;53.524;49.396;2022-11-03T15:50:19;6.80;69.00
67182;DHT22;54114;53.524;49.396;2022-11-03T15:52:45;6.70;68.90
67182;DHT22;54114;53.524;49.396;2022-11-03T15:55:11;6.70;69.00
67182;DHT22;54114;53.524;49.396;2022-11-03T15:57:38;6.60;69.10
67182;DHT22;54114;53.524;49.396;2022-11-03T16:00:04;6.60;69.20
67182;DHT22;54114;53.524;49.396;2022-11-03T16:02:31;6.60;69.30
67182;DHT22;54114;53.524;49.396;2022-11-03T16:04:58;6.60;69.30
67182;DHT22;54114;53.524;49.396;2022-11-03T16:07:27;6.50;69.20
67182;DHT22;54114;53.524;49.396;2022-11-03T16:09:53;6.50;69.40
67182;DHT22;54114;53.524;49.396;2022-11-03T16:12:21;6.40;69.60
67182;DHT22;54114;53.524;49.396;2022-11-03T16:14:49;6.40;69.70
67182;DHT22;54114;53.524;49.396;2022-11-03T16:17:16;6.30;69.70
67182;DHT22;54114;53.524;49.396;2022-11-03T16:19:42;6.30;69.80
67182;DHT22;54114;53.524;49.396;2022-11-03T16:22:09;6.20;69.80
67182;DHT22;54114;53.524;49.396;2022-11-03T16:24:36;6.10;70.00
67182;DHT22;54114;53.524;49.396;2022-11-03T16:27:02;6.10;70.10
67182;DHT22;54114;53.524;49.396;2022-11-03T16:29:29;6.10;70.30
67182;DHT22;54114;53.524;49.396;2022-11-03T16:31:55;6.10;70.30
67182;DHT22;54114;53.524;49.396;2022-11-03T16:34:22;6.10;70.40
67182;DHT22;54114;53.524;49.396;2022-11-03T16:36:48;6.10;70.40
67182;DHT22;54114;53.524;49.396;2022-11-03T16:39:15;6.10;70.50
67182;DHT22;54114;53.524;49.396;2022-11-03T16:41:41;6.10;70.60
67182;DHT22;54114;53.524;49.396;2022-11-03T16:44:07;6.00;70.50
67182;DHT22;54114;53.524;49.396;2022-11-03T16:46:34;6.00;70.60
67182;DHT22;54114;53.524;49.396;2022-11-03T16:49:00;6.00;70.70
67182;DHT22;54114;53.524;49.396;2022-11-03T16:51:27;6.00;70.60
67182;DHT22;54114;53.524;49.396;2022-11-03T16:53:53;6.00;70.50
67182;DHT22;54114;53.524;49.396;2022-11-03T16:56:22;6.00;70.50
67182;DHT22;54114;53.524;49.396;2022-11-03T16:58:48;6.00;70.50
67182;DHT22;54114;53.524;49.396;2022-11-03T17:01:15;6.00;70.60
67182;DHT22;54114;53.524;49.396;2022-11-03T17:03:41;6.00;70.70